<?xml version="1.0" encoding="UTF-8" standalone="no" ?>
<gpx xmlns="http://www.topografix.com/GPX/1/1" xmlns:xsi="http://www.w3.org/2001/XMLSchema-instance" xsi:schemaLocation="http://www.topografix.com/GPX/1/1 http://www.topografix.com/GPX/1/1/gpx.xsd" version="1.1" creator="VisuGPX - https://www.visugpx.com">
  <metadata>
    <name>2019-03-13-Chapelle-Sainte -Anne</name>
  </metadata>
  <wpt lat="43.24006" lon="5.75168">
    <ele>236.8</ele>
    <name><![CDATA[Banane]]></name>
  </wpt>
  <wpt lat="43.23249" lon="5.76192">
    <ele>187.7</ele>
    <name><![CDATA[Chapelle Sainte-Anne]]></name>
  </wpt>
  <wpt lat="43.23282" lon="5.76205">
    <ele>195.6</ele>
    <name><![CDATA[Cimetière]]></name>
  </wpt>
  <wpt lat="43.23546" lon="5.75254">
    <ele>215.8</ele>
    <name><![CDATA[Font de Mars]]></name>
  </wpt>
  <wpt lat="43.23411" lon="5.75259">
    <ele>209</ele>
    <name><![CDATA[Four à Cade]]></name>
  </wpt>
  <wpt lat="43.24092" lon="5.75367">
    <ele>259.2</ele>
    <name><![CDATA[Four à Chaux]]></name>
  </wpt>
  <wpt lat="43.23903" lon="5.75297">
    <ele>224.6</ele>
    <name><![CDATA[Four à Poix]]></name>
  </wpt>
  <wpt lat="43.24298" lon="5.71494">
    <ele>437.8</ele>
    <name><![CDATA[Parking]]></name>
  </wpt>
  <trk>
    <name><![CDATA[2019-03-13-Chapelle-Sainte -Anne]]></name>
    <trkseg>
      <trkpt lat="43.24289" lon="5.71505">
        <ele>438</ele>
        <time>2019-03-13T07:23:47Z</time>
      </trkpt>
      <trkpt lat="43.2428" lon="5.71517">
        <ele>438</ele>
        <time>2019-03-13T07:26:54Z</time>
      </trkpt>
      <trkpt lat="43.24265" lon="5.7154">
        <ele>437</ele>
        <time>2019-03-13T07:27:16Z</time>
      </trkpt>
      <trkpt lat="43.24252" lon="5.71558">
        <ele>437</ele>
        <time>2019-03-13T07:28:09Z</time>
      </trkpt>
      <trkpt lat="43.24238" lon="5.71578">
        <ele>435</ele>
        <time>2019-03-13T07:28:45Z</time>
      </trkpt>
      <trkpt lat="43.24222" lon="5.71598">
        <ele>434</ele>
        <time>2019-03-13T07:29:08Z</time>
      </trkpt>
      <trkpt lat="43.24206" lon="5.7162">
        <ele>433</ele>
        <time>2019-03-13T07:29:31Z</time>
      </trkpt>
      <trkpt lat="43.24188" lon="5.71633">
        <ele>433</ele>
        <time>2019-03-13T07:29:55Z</time>
      </trkpt>
      <trkpt lat="43.24173" lon="5.71649">
        <ele>432</ele>
        <time>2019-03-13T07:30:14Z</time>
      </trkpt>
      <trkpt lat="43.24159" lon="5.71669">
        <ele>430</ele>
        <time>2019-03-13T07:30:32Z</time>
      </trkpt>
      <trkpt lat="43.24148" lon="5.71689">
        <ele>428</ele>
        <time>2019-03-13T07:30:50Z</time>
      </trkpt>
      <trkpt lat="43.24136" lon="5.7171">
        <ele>427</ele>
        <time>2019-03-13T07:31:09Z</time>
      </trkpt>
      <trkpt lat="43.24118" lon="5.71718">
        <ele>426</ele>
        <time>2019-03-13T07:31:27Z</time>
      </trkpt>
      <trkpt lat="43.24101" lon="5.71722">
        <ele>425</ele>
        <time>2019-03-13T07:31:46Z</time>
      </trkpt>
      <trkpt lat="43.24085" lon="5.7173">
        <ele>424</ele>
        <time>2019-03-13T07:32:04Z</time>
      </trkpt>
      <trkpt lat="43.24091" lon="5.71754">
        <ele>423</ele>
        <time>2019-03-13T07:32:21Z</time>
      </trkpt>
      <trkpt lat="43.241" lon="5.71777">
        <ele>424</ele>
        <time>2019-03-13T07:32:38Z</time>
      </trkpt>
      <trkpt lat="43.24111" lon="5.71795">
        <ele>424</ele>
        <time>2019-03-13T07:33:19Z</time>
      </trkpt>
      <trkpt lat="43.24118" lon="5.71819">
        <ele>424</ele>
        <time>2019-03-13T07:33:36Z</time>
      </trkpt>
      <trkpt lat="43.24127" lon="5.71841">
        <ele>422</ele>
        <time>2019-03-13T07:33:53Z</time>
      </trkpt>
      <trkpt lat="43.24135" lon="5.71865">
        <ele>422</ele>
        <time>2019-03-13T07:34:10Z</time>
      </trkpt>
      <trkpt lat="43.24142" lon="5.7189">
        <ele>423</ele>
        <time>2019-03-13T07:34:29Z</time>
      </trkpt>
      <trkpt lat="43.24141" lon="5.71917">
        <ele>421</ele>
        <time>2019-03-13T07:34:52Z</time>
      </trkpt>
      <trkpt lat="43.2415" lon="5.71941">
        <ele>421</ele>
        <time>2019-03-13T07:35:13Z</time>
      </trkpt>
      <trkpt lat="43.24163" lon="5.71965">
        <ele>421</ele>
        <time>2019-03-13T07:35:33Z</time>
      </trkpt>
      <trkpt lat="43.24173" lon="5.71995">
        <ele>424</ele>
        <time>2019-03-13T07:36:01Z</time>
      </trkpt>
      <trkpt lat="43.24177" lon="5.72025">
        <ele>424</ele>
        <time>2019-03-13T07:36:24Z</time>
      </trkpt>
      <trkpt lat="43.2419" lon="5.72045">
        <ele>424</ele>
        <time>2019-03-13T07:36:45Z</time>
      </trkpt>
      <trkpt lat="43.24183" lon="5.72072">
        <ele>423</ele>
        <time>2019-03-13T07:37:05Z</time>
      </trkpt>
      <trkpt lat="43.24176" lon="5.72099">
        <ele>422</ele>
        <time>2019-03-13T07:37:23Z</time>
      </trkpt>
      <trkpt lat="43.24171" lon="5.72124">
        <ele>422</ele>
        <time>2019-03-13T07:37:40Z</time>
      </trkpt>
      <trkpt lat="43.24166" lon="5.7215">
        <ele>419</ele>
        <time>2019-03-13T07:37:56Z</time>
      </trkpt>
      <trkpt lat="43.24163" lon="5.72167">
        <ele>420</ele>
        <time>2019-03-13T07:38:35Z</time>
      </trkpt>
      <trkpt lat="43.24159" lon="5.72194">
        <ele>418</ele>
        <time>2019-03-13T07:38:50Z</time>
      </trkpt>
      <trkpt lat="43.24153" lon="5.72219">
        <ele>418</ele>
        <time>2019-03-13T07:39:06Z</time>
      </trkpt>
      <trkpt lat="43.24147" lon="5.72244">
        <ele>418</ele>
        <time>2019-03-13T07:39:24Z</time>
      </trkpt>
      <trkpt lat="43.24142" lon="5.72272">
        <ele>417</ele>
        <time>2019-03-13T07:39:42Z</time>
      </trkpt>
      <trkpt lat="43.24137" lon="5.72298">
        <ele>416</ele>
        <time>2019-03-13T07:40:01Z</time>
      </trkpt>
      <trkpt lat="43.24132" lon="5.72325">
        <ele>416</ele>
        <time>2019-03-13T07:40:21Z</time>
      </trkpt>
      <trkpt lat="43.24147" lon="5.72328">
        <ele>415</ele>
        <time>2019-03-13T07:40:39Z</time>
      </trkpt>
      <trkpt lat="43.24167" lon="5.72319">
        <ele>416</ele>
        <time>2019-03-13T07:40:58Z</time>
      </trkpt>
      <trkpt lat="43.24184" lon="5.72308">
        <ele>417</ele>
        <time>2019-03-13T07:41:15Z</time>
      </trkpt>
      <trkpt lat="43.24202" lon="5.72297">
        <ele>418</ele>
        <time>2019-03-13T07:41:32Z</time>
      </trkpt>
      <trkpt lat="43.24191" lon="5.72306">
        <ele>417</ele>
        <time>2019-03-13T07:42:21Z</time>
      </trkpt>
      <trkpt lat="43.24174" lon="5.72315">
        <ele>416</ele>
        <time>2019-03-13T07:42:39Z</time>
      </trkpt>
      <trkpt lat="43.24156" lon="5.72325">
        <ele>415</ele>
        <time>2019-03-13T07:42:55Z</time>
      </trkpt>
      <trkpt lat="43.24138" lon="5.72332">
        <ele>416</ele>
        <time>2019-03-13T07:43:11Z</time>
      </trkpt>
      <trkpt lat="43.24126" lon="5.72349">
        <ele>415</ele>
        <time>2019-03-13T07:43:28Z</time>
      </trkpt>
      <trkpt lat="43.24123" lon="5.72376">
        <ele>414</ele>
        <time>2019-03-13T07:43:45Z</time>
      </trkpt>
      <trkpt lat="43.24118" lon="5.72403">
        <ele>414</ele>
        <time>2019-03-13T07:44:02Z</time>
      </trkpt>
      <trkpt lat="43.24127" lon="5.72421">
        <ele>412</ele>
        <time>2019-03-13T07:44:31Z</time>
      </trkpt>
      <trkpt lat="43.24142" lon="5.72438">
        <ele>412</ele>
        <time>2019-03-13T07:44:49Z</time>
      </trkpt>
      <trkpt lat="43.24156" lon="5.72459">
        <ele>412</ele>
        <time>2019-03-13T07:45:07Z</time>
      </trkpt>
      <trkpt lat="43.24174" lon="5.72474">
        <ele>414</ele>
        <time>2019-03-13T07:45:26Z</time>
      </trkpt>
      <trkpt lat="43.24193" lon="5.72484">
        <ele>415</ele>
        <time>2019-03-13T07:45:46Z</time>
      </trkpt>
      <trkpt lat="43.24212" lon="5.72501">
        <ele>416</ele>
        <time>2019-03-13T07:46:05Z</time>
      </trkpt>
      <trkpt lat="43.24232" lon="5.72516">
        <ele>417</ele>
        <time>2019-03-13T07:46:26Z</time>
      </trkpt>
      <trkpt lat="43.24246" lon="5.72533">
        <ele>417</ele>
        <time>2019-03-13T07:46:45Z</time>
      </trkpt>
      <trkpt lat="43.24266" lon="5.72526">
        <ele>422</ele>
        <time>2019-03-13T07:47:14Z</time>
      </trkpt>
      <trkpt lat="43.24294" lon="5.72525">
        <ele>423</ele>
        <time>2019-03-13T07:47:43Z</time>
      </trkpt>
      <trkpt lat="43.24315" lon="5.7254">
        <ele>424</ele>
        <time>2019-03-13T07:48:04Z</time>
      </trkpt>
      <trkpt lat="43.24343" lon="5.72543">
        <ele>427</ele>
        <time>2019-03-13T07:48:34Z</time>
      </trkpt>
      <trkpt lat="43.2438" lon="5.72542">
        <ele>426</ele>
        <time>2019-03-13T07:49:10Z</time>
      </trkpt>
      <trkpt lat="43.24412" lon="5.72525">
        <ele>427</ele>
        <time>2019-03-13T07:49:43Z</time>
      </trkpt>
      <trkpt lat="43.24436" lon="5.72512">
        <ele>426</ele>
        <time>2019-03-13T07:50:04Z</time>
      </trkpt>
      <trkpt lat="43.24469" lon="5.72496">
        <ele>427</ele>
        <time>2019-03-13T07:50:40Z</time>
      </trkpt>
      <trkpt lat="43.24496" lon="5.72488">
        <ele>426</ele>
        <time>2019-03-13T07:51:05Z</time>
      </trkpt>
      <trkpt lat="43.24523" lon="5.72485">
        <ele>427</ele>
        <time>2019-03-13T07:51:30Z</time>
      </trkpt>
      <trkpt lat="43.24547" lon="5.7248">
        <ele>428</ele>
        <time>2019-03-13T07:51:59Z</time>
      </trkpt>
      <trkpt lat="43.2454" lon="5.72505">
        <ele>424</ele>
        <time>2019-03-13T07:52:47Z</time>
      </trkpt>
      <trkpt lat="43.2452" lon="5.72517">
        <ele>424</ele>
        <time>2019-03-13T07:53:15Z</time>
      </trkpt>
      <trkpt lat="43.24503" lon="5.72538">
        <ele>423</ele>
        <time>2019-03-13T07:53:41Z</time>
      </trkpt>
      <trkpt lat="43.24494" lon="5.7256">
        <ele>422</ele>
        <time>2019-03-13T07:54:08Z</time>
      </trkpt>
      <trkpt lat="43.24482" lon="5.72585">
        <ele>420</ele>
        <time>2019-03-13T07:54:31Z</time>
      </trkpt>
      <trkpt lat="43.24479" lon="5.72614">
        <ele>420</ele>
        <time>2019-03-13T07:54:51Z</time>
      </trkpt>
      <trkpt lat="43.24477" lon="5.72644">
        <ele>419</ele>
        <time>2019-03-13T07:55:12Z</time>
      </trkpt>
      <trkpt lat="43.24469" lon="5.72672">
        <ele>416</ele>
        <time>2019-03-13T07:55:32Z</time>
      </trkpt>
      <trkpt lat="43.2446" lon="5.72696">
        <ele>416</ele>
        <time>2019-03-13T07:55:52Z</time>
      </trkpt>
      <trkpt lat="43.2445" lon="5.72721">
        <ele>415</ele>
        <time>2019-03-13T07:56:09Z</time>
      </trkpt>
      <trkpt lat="43.24442" lon="5.72746">
        <ele>413</ele>
        <time>2019-03-13T07:56:30Z</time>
      </trkpt>
      <trkpt lat="43.2443" lon="5.72768">
        <ele>411</ele>
        <time>2019-03-13T07:56:52Z</time>
      </trkpt>
      <trkpt lat="43.24418" lon="5.72791">
        <ele>410</ele>
        <time>2019-03-13T07:57:13Z</time>
      </trkpt>
      <trkpt lat="43.24402" lon="5.7281">
        <ele>408</ele>
        <time>2019-03-13T07:57:30Z</time>
      </trkpt>
      <trkpt lat="43.24386" lon="5.72821">
        <ele>408</ele>
        <time>2019-03-13T07:57:46Z</time>
      </trkpt>
      <trkpt lat="43.24366" lon="5.72835">
        <ele>405</ele>
        <time>2019-03-13T07:58:04Z</time>
      </trkpt>
      <trkpt lat="43.24347" lon="5.72845">
        <ele>405</ele>
        <time>2019-03-13T07:58:31Z</time>
      </trkpt>
      <trkpt lat="43.24345" lon="5.72872">
        <ele>404</ele>
        <time>2019-03-13T07:58:56Z</time>
      </trkpt>
      <trkpt lat="43.2434" lon="5.72896">
        <ele>402</ele>
        <time>2019-03-13T07:59:19Z</time>
      </trkpt>
      <trkpt lat="43.24331" lon="5.72925">
        <ele>398</ele>
        <time>2019-03-13T07:59:46Z</time>
      </trkpt>
      <trkpt lat="43.24317" lon="5.72947">
        <ele>399</ele>
        <time>2019-03-13T08:00:07Z</time>
      </trkpt>
      <trkpt lat="43.24306" lon="5.72972">
        <ele>398</ele>
        <time>2019-03-13T08:00:33Z</time>
      </trkpt>
      <trkpt lat="43.24289" lon="5.72987">
        <ele>397</ele>
        <time>2019-03-13T08:00:59Z</time>
      </trkpt>
      <trkpt lat="43.24274" lon="5.73009">
        <ele>393</ele>
        <time>2019-03-13T08:01:21Z</time>
      </trkpt>
      <trkpt lat="43.2426" lon="5.73028">
        <ele>392</ele>
        <time>2019-03-13T08:01:50Z</time>
      </trkpt>
      <trkpt lat="43.24243" lon="5.73047">
        <ele>388</ele>
        <time>2019-03-13T08:02:14Z</time>
      </trkpt>
      <trkpt lat="43.24226" lon="5.73067">
        <ele>387</ele>
        <time>2019-03-13T08:02:39Z</time>
      </trkpt>
      <trkpt lat="43.2422" lon="5.73091">
        <ele>380</ele>
        <time>2019-03-13T08:02:59Z</time>
      </trkpt>
      <trkpt lat="43.24217" lon="5.73117">
        <ele>379</ele>
        <time>2019-03-13T08:03:23Z</time>
      </trkpt>
      <trkpt lat="43.24209" lon="5.7314">
        <ele>378</ele>
        <time>2019-03-13T08:03:43Z</time>
      </trkpt>
      <trkpt lat="43.24197" lon="5.7316">
        <ele>376</ele>
        <time>2019-03-13T08:04:05Z</time>
      </trkpt>
      <trkpt lat="43.24189" lon="5.73184">
        <ele>370</ele>
        <time>2019-03-13T08:04:28Z</time>
      </trkpt>
      <trkpt lat="43.24199" lon="5.73209">
        <ele>370</ele>
        <time>2019-03-13T08:04:47Z</time>
      </trkpt>
      <trkpt lat="43.24205" lon="5.73234">
        <ele>369</ele>
        <time>2019-03-13T08:05:08Z</time>
      </trkpt>
      <trkpt lat="43.24215" lon="5.73256">
        <ele>367</ele>
        <time>2019-03-13T08:05:29Z</time>
      </trkpt>
      <trkpt lat="43.24222" lon="5.73279">
        <ele>367</ele>
        <time>2019-03-13T08:05:50Z</time>
      </trkpt>
      <trkpt lat="43.24232" lon="5.73297">
        <ele>366</ele>
        <time>2019-03-13T08:06:13Z</time>
      </trkpt>
      <trkpt lat="43.24231" lon="5.73326">
        <ele>364</ele>
        <time>2019-03-13T08:06:37Z</time>
      </trkpt>
      <trkpt lat="43.24229" lon="5.73338">
        <ele>363</ele>
        <time>2019-03-13T08:08:30Z</time>
      </trkpt>
      <trkpt lat="43.24226" lon="5.73366">
        <ele>364</ele>
        <time>2019-03-13T08:08:52Z</time>
      </trkpt>
      <trkpt lat="43.24223" lon="5.73395">
        <ele>363</ele>
        <time>2019-03-13T08:09:11Z</time>
      </trkpt>
      <trkpt lat="43.24215" lon="5.73421">
        <ele>359</ele>
        <time>2019-03-13T08:09:32Z</time>
      </trkpt>
      <trkpt lat="43.24205" lon="5.73444">
        <ele>359</ele>
        <time>2019-03-13T08:09:51Z</time>
      </trkpt>
      <trkpt lat="43.24209" lon="5.73474">
        <ele>358</ele>
        <time>2019-03-13T08:10:08Z</time>
      </trkpt>
      <trkpt lat="43.24219" lon="5.73501">
        <ele>353</ele>
        <time>2019-03-13T08:10:26Z</time>
      </trkpt>
      <trkpt lat="43.24232" lon="5.73523">
        <ele>352</ele>
        <time>2019-03-13T08:10:44Z</time>
      </trkpt>
      <trkpt lat="43.24232" lon="5.7355">
        <ele>350</ele>
        <time>2019-03-13T08:11:04Z</time>
      </trkpt>
      <trkpt lat="43.24224" lon="5.73577">
        <ele>349</ele>
        <time>2019-03-13T08:11:23Z</time>
      </trkpt>
      <trkpt lat="43.24225" lon="5.73605">
        <ele>345</ele>
        <time>2019-03-13T08:11:42Z</time>
      </trkpt>
      <trkpt lat="43.24226" lon="5.73626">
        <ele>345</ele>
        <time>2019-03-13T08:13:35Z</time>
      </trkpt>
      <trkpt lat="43.24222" lon="5.73653">
        <ele>344</ele>
        <time>2019-03-13T08:15:07Z</time>
      </trkpt>
      <trkpt lat="43.24226" lon="5.73675">
        <ele>340</ele>
        <time>2019-03-13T08:16:28Z</time>
      </trkpt>
      <trkpt lat="43.24243" lon="5.73669">
        <ele>337</ele>
        <time>2019-03-13T08:17:14Z</time>
      </trkpt>
      <trkpt lat="43.24256" lon="5.73674">
        <ele>339</ele>
        <time>2019-03-13T08:17:39Z</time>
      </trkpt>
      <trkpt lat="43.2427" lon="5.73688">
        <ele>343</ele>
        <time>2019-03-13T08:18:08Z</time>
      </trkpt>
      <trkpt lat="43.24286" lon="5.73705">
        <ele>345</ele>
        <time>2019-03-13T08:18:49Z</time>
      </trkpt>
      <trkpt lat="43.24298" lon="5.73723">
        <ele>346</ele>
        <time>2019-03-13T08:19:45Z</time>
      </trkpt>
      <trkpt lat="43.24308" lon="5.73743">
        <ele>348</ele>
        <time>2019-03-13T08:20:45Z</time>
      </trkpt>
      <trkpt lat="43.24318" lon="5.7376">
        <ele>346</ele>
        <time>2019-03-13T08:21:45Z</time>
      </trkpt>
      <trkpt lat="43.24331" lon="5.73777">
        <ele>343</ele>
        <time>2019-03-13T08:22:24Z</time>
      </trkpt>
      <trkpt lat="43.2434" lon="5.7376">
        <ele>350</ele>
        <time>2019-03-13T08:24:06Z</time>
      </trkpt>
      <trkpt lat="43.24351" lon="5.73739">
        <ele>353</ele>
        <time>2019-03-13T08:24:26Z</time>
      </trkpt>
      <trkpt lat="43.24352" lon="5.73717">
        <ele>352</ele>
        <time>2019-03-13T08:26:14Z</time>
      </trkpt>
      <trkpt lat="43.24346" lon="5.73691">
        <ele>353</ele>
        <time>2019-03-13T08:26:51Z</time>
      </trkpt>
      <trkpt lat="43.2435" lon="5.73663">
        <ele>358</ele>
        <time>2019-03-13T08:27:14Z</time>
      </trkpt>
      <trkpt lat="43.24362" lon="5.73644">
        <ele>359</ele>
        <time>2019-03-13T08:27:38Z</time>
      </trkpt>
      <trkpt lat="43.24379" lon="5.73636">
        <ele>359</ele>
        <time>2019-03-13T08:28:17Z</time>
      </trkpt>
      <trkpt lat="43.24396" lon="5.73632">
        <ele>358</ele>
        <time>2019-03-13T08:29:31Z</time>
      </trkpt>
      <trkpt lat="43.24408" lon="5.73641">
        <ele>356</ele>
        <time>2019-03-13T08:31:10Z</time>
      </trkpt>
      <trkpt lat="43.24422" lon="5.7365">
        <ele>354</ele>
        <time>2019-03-13T08:33:45Z</time>
      </trkpt>
      <trkpt lat="43.24434" lon="5.73673">
        <ele>350</ele>
        <time>2019-03-13T08:36:03Z</time>
      </trkpt>
      <trkpt lat="43.24434" lon="5.73703">
        <ele>349</ele>
        <time>2019-03-13T08:36:31Z</time>
      </trkpt>
      <trkpt lat="43.24439" lon="5.73728">
        <ele>347</ele>
        <time>2019-03-13T08:36:53Z</time>
      </trkpt>
      <trkpt lat="43.24439" lon="5.73755">
        <ele>342</ele>
        <time>2019-03-13T08:37:16Z</time>
      </trkpt>
      <trkpt lat="43.24437" lon="5.73785">
        <ele>341</ele>
        <time>2019-03-13T08:37:43Z</time>
      </trkpt>
      <trkpt lat="43.24433" lon="5.73816">
        <ele>337</ele>
        <time>2019-03-13T08:38:11Z</time>
      </trkpt>
      <trkpt lat="43.24427" lon="5.73842">
        <ele>330</ele>
        <time>2019-03-13T08:38:39Z</time>
      </trkpt>
      <trkpt lat="43.24411" lon="5.73856">
        <ele>325</ele>
        <time>2019-03-13T08:39:04Z</time>
      </trkpt>
      <trkpt lat="43.24399" lon="5.7388">
        <ele>322</ele>
        <time>2019-03-13T08:39:31Z</time>
      </trkpt>
      <trkpt lat="43.24392" lon="5.73907">
        <ele>319</ele>
        <time>2019-03-13T08:40:00Z</time>
      </trkpt>
      <trkpt lat="43.24386" lon="5.73934">
        <ele>311</ele>
        <time>2019-03-13T08:40:28Z</time>
      </trkpt>
      <trkpt lat="43.24379" lon="5.73959">
        <ele>309</ele>
        <time>2019-03-13T08:40:52Z</time>
      </trkpt>
      <trkpt lat="43.24366" lon="5.7398">
        <ele>307</ele>
        <time>2019-03-13T08:41:14Z</time>
      </trkpt>
      <trkpt lat="43.24351" lon="5.73993">
        <ele>304</ele>
        <time>2019-03-13T08:41:34Z</time>
      </trkpt>
      <trkpt lat="43.24336" lon="5.74012">
        <ele>300</ele>
        <time>2019-03-13T08:41:54Z</time>
      </trkpt>
      <trkpt lat="43.24322" lon="5.74032">
        <ele>297</ele>
        <time>2019-03-13T08:42:16Z</time>
      </trkpt>
      <trkpt lat="43.24307" lon="5.74052">
        <ele>297</ele>
        <time>2019-03-13T08:42:36Z</time>
      </trkpt>
      <trkpt lat="43.24295" lon="5.74077">
        <ele>297</ele>
        <time>2019-03-13T08:42:56Z</time>
      </trkpt>
      <trkpt lat="43.24297" lon="5.74106">
        <ele>295</ele>
        <time>2019-03-13T08:43:16Z</time>
      </trkpt>
      <trkpt lat="43.24295" lon="5.74135">
        <ele>294</ele>
        <time>2019-03-13T08:43:36Z</time>
      </trkpt>
      <trkpt lat="43.24303" lon="5.74161">
        <ele>293</ele>
        <time>2019-03-13T08:43:56Z</time>
      </trkpt>
      <trkpt lat="43.24311" lon="5.74187">
        <ele>290</ele>
        <time>2019-03-13T08:44:16Z</time>
      </trkpt>
      <trkpt lat="43.24316" lon="5.74212">
        <ele>289</ele>
        <time>2019-03-13T08:44:37Z</time>
      </trkpt>
      <trkpt lat="43.24326" lon="5.74232">
        <ele>286</ele>
        <time>2019-03-13T08:45:01Z</time>
      </trkpt>
      <trkpt lat="43.24341" lon="5.74242">
        <ele>286</ele>
        <time>2019-03-13T08:45:24Z</time>
      </trkpt>
      <trkpt lat="43.2436" lon="5.74238">
        <ele>290</ele>
        <time>2019-03-13T08:45:47Z</time>
      </trkpt>
      <trkpt lat="43.24371" lon="5.74257">
        <ele>285</ele>
        <time>2019-03-13T08:46:22Z</time>
      </trkpt>
      <trkpt lat="43.24371" lon="5.74286">
        <ele>285</ele>
        <time>2019-03-13T08:46:41Z</time>
      </trkpt>
      <trkpt lat="43.24376" lon="5.74317">
        <ele>284</ele>
        <time>2019-03-13T08:47:01Z</time>
      </trkpt>
      <trkpt lat="43.24389" lon="5.74339">
        <ele>280</ele>
        <time>2019-03-13T08:47:19Z</time>
      </trkpt>
      <trkpt lat="43.24401" lon="5.74361">
        <ele>280</ele>
        <time>2019-03-13T08:47:38Z</time>
      </trkpt>
      <trkpt lat="43.24408" lon="5.74389">
        <ele>278</ele>
        <time>2019-03-13T08:47:58Z</time>
      </trkpt>
      <trkpt lat="43.24407" lon="5.74415">
        <ele>275</ele>
        <time>2019-03-13T08:48:18Z</time>
      </trkpt>
      <trkpt lat="43.24402" lon="5.74443">
        <ele>278</ele>
        <time>2019-03-13T08:48:42Z</time>
      </trkpt>
      <trkpt lat="43.244" lon="5.74476">
        <ele>278</ele>
        <time>2019-03-13T08:49:03Z</time>
      </trkpt>
      <trkpt lat="43.24398" lon="5.74506">
        <ele>277</ele>
        <time>2019-03-13T08:49:27Z</time>
      </trkpt>
      <trkpt lat="43.24401" lon="5.74535">
        <ele>278</ele>
        <time>2019-03-13T08:49:50Z</time>
      </trkpt>
      <trkpt lat="43.24405" lon="5.74566">
        <ele>275</ele>
        <time>2019-03-13T08:50:09Z</time>
      </trkpt>
      <trkpt lat="43.2441" lon="5.74596">
        <ele>272</ele>
        <time>2019-03-13T08:50:30Z</time>
      </trkpt>
      <trkpt lat="43.24411" lon="5.74628">
        <ele>272</ele>
        <time>2019-03-13T08:50:52Z</time>
      </trkpt>
      <trkpt lat="43.24408" lon="5.74659">
        <ele>268</ele>
        <time>2019-03-13T08:51:14Z</time>
      </trkpt>
      <trkpt lat="43.24411" lon="5.74687">
        <ele>265</ele>
        <time>2019-03-13T08:51:34Z</time>
      </trkpt>
      <trkpt lat="43.24417" lon="5.74715">
        <ele>266</ele>
        <time>2019-03-13T08:51:55Z</time>
      </trkpt>
      <trkpt lat="43.24414" lon="5.74745">
        <ele>260</ele>
        <time>2019-03-13T08:52:17Z</time>
      </trkpt>
      <trkpt lat="43.24408" lon="5.74772">
        <ele>260</ele>
        <time>2019-03-13T08:52:37Z</time>
      </trkpt>
      <trkpt lat="43.24398" lon="5.74794">
        <ele>260</ele>
        <time>2019-03-13T08:52:55Z</time>
      </trkpt>
      <trkpt lat="43.24385" lon="5.74812">
        <ele>260</ele>
        <time>2019-03-13T08:53:14Z</time>
      </trkpt>
      <trkpt lat="43.24368" lon="5.74824">
        <ele>259</ele>
        <time>2019-03-13T08:53:34Z</time>
      </trkpt>
      <trkpt lat="43.24352" lon="5.74842">
        <ele>259</ele>
        <time>2019-03-13T08:53:53Z</time>
      </trkpt>
      <trkpt lat="43.24335" lon="5.74855">
        <ele>259</ele>
        <time>2019-03-13T08:54:12Z</time>
      </trkpt>
      <trkpt lat="43.24317" lon="5.74866">
        <ele>255</ele>
        <time>2019-03-13T08:54:32Z</time>
      </trkpt>
      <trkpt lat="43.24301" lon="5.74882">
        <ele>254</ele>
        <time>2019-03-13T08:54:53Z</time>
      </trkpt>
      <trkpt lat="43.24282" lon="5.74891">
        <ele>253</ele>
        <time>2019-03-13T08:55:12Z</time>
      </trkpt>
      <trkpt lat="43.24267" lon="5.74907">
        <ele>251</ele>
        <time>2019-03-13T08:55:32Z</time>
      </trkpt>
      <trkpt lat="43.24252" lon="5.74925">
        <ele>249</ele>
        <time>2019-03-13T08:55:53Z</time>
      </trkpt>
      <trkpt lat="43.24244" lon="5.74954">
        <ele>247</ele>
        <time>2019-03-13T08:56:20Z</time>
      </trkpt>
      <trkpt lat="43.24234" lon="5.74979">
        <ele>248</ele>
        <time>2019-03-13T08:56:39Z</time>
      </trkpt>
      <trkpt lat="43.24215" lon="5.74988">
        <ele>248</ele>
        <time>2019-03-13T08:56:57Z</time>
      </trkpt>
      <trkpt lat="43.24199" lon="5.75001">
        <ele>249</ele>
        <time>2019-03-13T08:57:17Z</time>
      </trkpt>
      <trkpt lat="43.24179" lon="5.75007">
        <ele>248</ele>
        <time>2019-03-13T08:57:39Z</time>
      </trkpt>
      <trkpt lat="43.2416" lon="5.7501">
        <ele>247</ele>
        <time>2019-03-13T08:57:57Z</time>
      </trkpt>
      <trkpt lat="43.24141" lon="5.75013">
        <ele>248</ele>
        <time>2019-03-13T08:58:17Z</time>
      </trkpt>
      <trkpt lat="43.24126" lon="5.75023">
        <ele>249</ele>
        <time>2019-03-13T08:58:36Z</time>
      </trkpt>
      <trkpt lat="43.24116" lon="5.75049">
        <ele>248</ele>
        <time>2019-03-13T08:58:55Z</time>
      </trkpt>
      <trkpt lat="43.241" lon="5.75063">
        <ele>247</ele>
        <time>2019-03-13T08:59:14Z</time>
      </trkpt>
      <trkpt lat="43.24081" lon="5.75067">
        <ele>244</ele>
        <time>2019-03-13T08:59:34Z</time>
      </trkpt>
      <trkpt lat="43.24064" lon="5.7508">
        <ele>244</ele>
        <time>2019-03-13T08:59:58Z</time>
      </trkpt>
      <trkpt lat="43.24048" lon="5.75096">
        <ele>242</ele>
        <time>2019-03-13T09:00:27Z</time>
      </trkpt>
      <trkpt lat="43.24035" lon="5.75121">
        <ele>241</ele>
        <time>2019-03-13T09:00:53Z</time>
      </trkpt>
      <trkpt lat="43.24024" lon="5.75143">
        <ele>240</ele>
        <time>2019-03-13T09:01:15Z</time>
      </trkpt>
      <trkpt lat="43.24011" lon="5.75163">
        <ele>238</ele>
        <time>2019-03-13T09:01:40Z</time>
      </trkpt>
      <trkpt lat="43.24006" lon="5.75169">
        <ele>237</ele>
        <time>2019-03-13T09:20:19Z</time>
      </trkpt>
      <trkpt lat="43.23992" lon="5.75182">
        <ele>234</ele>
        <time>2019-03-13T09:23:17Z</time>
      </trkpt>
      <trkpt lat="43.23971" lon="5.75191">
        <ele>233</ele>
        <time>2019-03-13T09:23:49Z</time>
      </trkpt>
      <trkpt lat="43.23951" lon="5.75209">
        <ele>232</ele>
        <time>2019-03-13T09:24:13Z</time>
      </trkpt>
      <trkpt lat="43.23934" lon="5.75219">
        <ele>231</ele>
        <time>2019-03-13T09:24:35Z</time>
      </trkpt>
      <trkpt lat="43.23915" lon="5.75224">
        <ele>228</ele>
        <time>2019-03-13T09:25:01Z</time>
      </trkpt>
      <trkpt lat="43.23893" lon="5.75231">
        <ele>227</ele>
        <time>2019-03-13T09:25:28Z</time>
      </trkpt>
      <trkpt lat="43.23874" lon="5.75248">
        <ele>227</ele>
        <time>2019-03-13T09:25:54Z</time>
      </trkpt>
      <trkpt lat="43.23854" lon="5.75261">
        <ele>223</ele>
        <time>2019-03-13T09:26:21Z</time>
      </trkpt>
      <trkpt lat="43.23837" lon="5.7528">
        <ele>223</ele>
        <time>2019-03-13T09:26:51Z</time>
      </trkpt>
      <trkpt lat="43.23818" lon="5.75296">
        <ele>220</ele>
        <time>2019-03-13T09:27:18Z</time>
      </trkpt>
      <trkpt lat="43.238" lon="5.7531">
        <ele>219</ele>
        <time>2019-03-13T09:28:28Z</time>
      </trkpt>
      <trkpt lat="43.23809" lon="5.75322">
        <ele>219</ele>
        <time>2019-03-13T09:29:25Z</time>
      </trkpt>
      <trkpt lat="43.2383" lon="5.75312">
        <ele>220</ele>
        <time>2019-03-13T09:29:52Z</time>
      </trkpt>
      <trkpt lat="43.23853" lon="5.75302">
        <ele>223</ele>
        <time>2019-03-13T09:30:25Z</time>
      </trkpt>
      <trkpt lat="43.23876" lon="5.75301">
        <ele>224</ele>
        <time>2019-03-13T09:30:51Z</time>
      </trkpt>
      <trkpt lat="43.23893" lon="5.75284">
        <ele>224</ele>
        <time>2019-03-13T09:31:42Z</time>
      </trkpt>
      <trkpt lat="43.23905" lon="5.7528">
        <ele>225</ele>
        <time>2019-03-13T09:34:19Z</time>
      </trkpt>
      <trkpt lat="43.23922" lon="5.75293">
        <ele>229</ele>
        <time>2019-03-13T09:36:33Z</time>
      </trkpt>
      <trkpt lat="43.23932" lon="5.75314">
        <ele>230</ele>
        <time>2019-03-13T09:37:08Z</time>
      </trkpt>
      <trkpt lat="43.23949" lon="5.75334">
        <ele>234</ele>
        <time>2019-03-13T09:37:32Z</time>
      </trkpt>
      <trkpt lat="43.23971" lon="5.75337">
        <ele>236</ele>
        <time>2019-03-13T09:38:06Z</time>
      </trkpt>
      <trkpt lat="43.23987" lon="5.75354">
        <ele>237</ele>
        <time>2019-03-13T09:39:08Z</time>
      </trkpt>
      <trkpt lat="43.24007" lon="5.7537">
        <ele>245</ele>
        <time>2019-03-13T09:39:34Z</time>
      </trkpt>
      <trkpt lat="43.24022" lon="5.75391">
        <ele>246</ele>
        <time>2019-03-13T09:39:59Z</time>
      </trkpt>
      <trkpt lat="43.24043" lon="5.75394">
        <ele>248</ele>
        <time>2019-03-13T09:40:24Z</time>
      </trkpt>
      <trkpt lat="43.24064" lon="5.75394">
        <ele>250</ele>
        <time>2019-03-13T09:40:44Z</time>
      </trkpt>
      <trkpt lat="43.24083" lon="5.7539">
        <ele>251</ele>
        <time>2019-03-13T09:41:08Z</time>
      </trkpt>
      <trkpt lat="43.24087" lon="5.7537">
        <ele>259</ele>
        <time>2019-03-13T09:46:02Z</time>
      </trkpt>
      <trkpt lat="43.2408" lon="5.75392">
        <ele>251</ele>
        <time>2019-03-13T09:46:55Z</time>
      </trkpt>
      <trkpt lat="43.24061" lon="5.75394">
        <ele>250</ele>
        <time>2019-03-13T09:47:19Z</time>
      </trkpt>
      <trkpt lat="43.24043" lon="5.75396">
        <ele>248</ele>
        <time>2019-03-13T09:47:38Z</time>
      </trkpt>
      <trkpt lat="43.24025" lon="5.75395">
        <ele>247</ele>
        <time>2019-03-13T09:47:59Z</time>
      </trkpt>
      <trkpt lat="43.24012" lon="5.75376">
        <ele>245</ele>
        <time>2019-03-13T09:48:22Z</time>
      </trkpt>
      <trkpt lat="43.23996" lon="5.75361">
        <ele>238</ele>
        <time>2019-03-13T09:48:42Z</time>
      </trkpt>
      <trkpt lat="43.23978" lon="5.7535">
        <ele>237</ele>
        <time>2019-03-13T09:49:01Z</time>
      </trkpt>
      <trkpt lat="43.23961" lon="5.75336">
        <ele>236</ele>
        <time>2019-03-13T09:49:22Z</time>
      </trkpt>
      <trkpt lat="43.23941" lon="5.75333">
        <ele>230</ele>
        <time>2019-03-13T09:49:43Z</time>
      </trkpt>
      <trkpt lat="43.23933" lon="5.75308">
        <ele>230</ele>
        <time>2019-03-13T09:50:07Z</time>
      </trkpt>
      <trkpt lat="43.23918" lon="5.75294">
        <ele>229</ele>
        <time>2019-03-13T09:50:32Z</time>
      </trkpt>
      <trkpt lat="43.239" lon="5.75283">
        <ele>225</ele>
        <time>2019-03-13T09:50:51Z</time>
      </trkpt>
      <trkpt lat="43.23891" lon="5.75293">
        <ele>224</ele>
        <time>2019-03-13T09:51:21Z</time>
      </trkpt>
      <trkpt lat="43.23872" lon="5.75304">
        <ele>224</ele>
        <time>2019-03-13T09:51:47Z</time>
      </trkpt>
      <trkpt lat="43.23853" lon="5.75304">
        <ele>223</ele>
        <time>2019-03-13T09:52:06Z</time>
      </trkpt>
      <trkpt lat="43.23833" lon="5.7531">
        <ele>220</ele>
        <time>2019-03-13T09:52:30Z</time>
      </trkpt>
      <trkpt lat="43.23812" lon="5.75323">
        <ele>219</ele>
        <time>2019-03-13T09:52:53Z</time>
      </trkpt>
      <trkpt lat="43.23794" lon="5.75319">
        <ele>219</ele>
        <time>2019-03-13T09:53:25Z</time>
      </trkpt>
      <trkpt lat="43.23773" lon="5.75326">
        <ele>219</ele>
        <time>2019-03-13T09:55:02Z</time>
      </trkpt>
      <trkpt lat="43.23753" lon="5.75317">
        <ele>219</ele>
        <time>2019-03-13T09:55:26Z</time>
      </trkpt>
      <trkpt lat="43.23735" lon="5.75301">
        <ele>218</ele>
        <time>2019-03-13T09:55:52Z</time>
      </trkpt>
      <trkpt lat="43.23719" lon="5.75276">
        <ele>216</ele>
        <time>2019-03-13T09:56:19Z</time>
      </trkpt>
      <trkpt lat="43.23707" lon="5.75247">
        <ele>215</ele>
        <time>2019-03-13T09:56:48Z</time>
      </trkpt>
      <trkpt lat="43.23688" lon="5.75238">
        <ele>214</ele>
        <time>2019-03-13T09:57:11Z</time>
      </trkpt>
      <trkpt lat="43.2367" lon="5.75236">
        <ele>212</ele>
        <time>2019-03-13T09:58:11Z</time>
      </trkpt>
      <trkpt lat="43.23649" lon="5.75234">
        <ele>212</ele>
        <time>2019-03-13T09:58:34Z</time>
      </trkpt>
      <trkpt lat="43.23624" lon="5.75238">
        <ele>212</ele>
        <time>2019-03-13T09:59:00Z</time>
      </trkpt>
      <trkpt lat="43.236" lon="5.75242">
        <ele>211</ele>
        <time>2019-03-13T09:59:25Z</time>
      </trkpt>
      <trkpt lat="43.23579" lon="5.75231">
        <ele>211</ele>
        <time>2019-03-13T09:59:48Z</time>
      </trkpt>
      <trkpt lat="43.23557" lon="5.75229">
        <ele>212</ele>
        <time>2019-03-13T10:00:10Z</time>
      </trkpt>
      <trkpt lat="43.23546" lon="5.7525">
        <ele>211</ele>
        <time>2019-03-13T10:01:28Z</time>
      </trkpt>
      <trkpt lat="43.23546" lon="5.75224">
        <ele>212</ele>
        <time>2019-03-13T10:05:50Z</time>
      </trkpt>
      <trkpt lat="43.23526" lon="5.75216">
        <ele>212</ele>
        <time>2019-03-13T10:06:17Z</time>
      </trkpt>
      <trkpt lat="43.23505" lon="5.7521">
        <ele>212</ele>
        <time>2019-03-13T10:06:38Z</time>
      </trkpt>
      <trkpt lat="43.23484" lon="5.75196">
        <ele>208</ele>
        <time>2019-03-13T10:07:12Z</time>
      </trkpt>
      <trkpt lat="43.23463" lon="5.75181">
        <ele>206</ele>
        <time>2019-03-13T10:07:37Z</time>
      </trkpt>
      <trkpt lat="43.23442" lon="5.75167">
        <ele>204</ele>
        <time>2019-03-13T10:07:57Z</time>
      </trkpt>
      <trkpt lat="43.23418" lon="5.75166">
        <ele>199</ele>
        <time>2019-03-13T10:08:32Z</time>
      </trkpt>
      <trkpt lat="43.234" lon="5.75179">
        <ele>200</ele>
        <time>2019-03-13T10:08:50Z</time>
      </trkpt>
      <trkpt lat="43.2338" lon="5.75194">
        <ele>200</ele>
        <time>2019-03-13T10:09:11Z</time>
      </trkpt>
      <trkpt lat="43.23358" lon="5.75204">
        <ele>200</ele>
        <time>2019-03-13T10:09:35Z</time>
      </trkpt>
      <trkpt lat="43.23339" lon="5.75219">
        <ele>199</ele>
        <time>2019-03-13T10:09:55Z</time>
      </trkpt>
      <trkpt lat="43.23318" lon="5.75232">
        <ele>197</ele>
        <time>2019-03-13T10:10:14Z</time>
      </trkpt>
      <trkpt lat="43.23294" lon="5.75245">
        <ele>196</ele>
        <time>2019-03-13T10:11:11Z</time>
      </trkpt>
      <trkpt lat="43.23271" lon="5.75252">
        <ele>197</ele>
        <time>2019-03-13T10:11:33Z</time>
      </trkpt>
      <trkpt lat="43.23247" lon="5.75255">
        <ele>192</ele>
        <time>2019-03-13T10:11:55Z</time>
      </trkpt>
      <trkpt lat="43.23224" lon="5.75256">
        <ele>193</ele>
        <time>2019-03-13T10:12:16Z</time>
      </trkpt>
      <trkpt lat="43.23201" lon="5.7526">
        <ele>192</ele>
        <time>2019-03-13T10:12:35Z</time>
      </trkpt>
      <trkpt lat="43.23176" lon="5.75261">
        <ele>190</ele>
        <time>2019-03-13T10:12:57Z</time>
      </trkpt>
      <trkpt lat="43.23168" lon="5.75269">
        <ele>191</ele>
        <time>2019-03-13T10:13:28Z</time>
      </trkpt>
      <trkpt lat="43.23176" lon="5.75298">
        <ele>193</ele>
        <time>2019-03-13T10:13:57Z</time>
      </trkpt>
      <trkpt lat="43.2318" lon="5.75329">
        <ele>194</ele>
        <time>2019-03-13T10:14:33Z</time>
      </trkpt>
      <trkpt lat="43.23187" lon="5.75361">
        <ele>201</ele>
        <time>2019-03-13T10:15:23Z</time>
      </trkpt>
      <trkpt lat="43.23195" lon="5.75388">
        <ele>203</ele>
        <time>2019-03-13T10:15:59Z</time>
      </trkpt>
      <trkpt lat="43.23202" lon="5.75416">
        <ele>205</ele>
        <time>2019-03-13T10:16:24Z</time>
      </trkpt>
      <trkpt lat="43.23212" lon="5.75444">
        <ele>210</ele>
        <time>2019-03-13T10:16:51Z</time>
      </trkpt>
      <trkpt lat="43.23218" lon="5.75471">
        <ele>211</ele>
        <time>2019-03-13T10:17:15Z</time>
      </trkpt>
      <trkpt lat="43.23224" lon="5.75502">
        <ele>213</ele>
        <time>2019-03-13T10:17:40Z</time>
      </trkpt>
      <trkpt lat="43.23232" lon="5.75526">
        <ele>213</ele>
        <time>2019-03-13T10:18:05Z</time>
      </trkpt>
      <trkpt lat="43.23237" lon="5.75552">
        <ele>213</ele>
        <time>2019-03-13T10:18:26Z</time>
      </trkpt>
      <trkpt lat="43.23243" lon="5.75576">
        <ele>215</ele>
        <time>2019-03-13T10:18:45Z</time>
      </trkpt>
      <trkpt lat="43.23251" lon="5.75602">
        <ele>218</ele>
        <time>2019-03-13T10:19:10Z</time>
      </trkpt>
      <trkpt lat="43.23259" lon="5.75629">
        <ele>218</ele>
        <time>2019-03-13T10:19:34Z</time>
      </trkpt>
      <trkpt lat="43.23266" lon="5.75654">
        <ele>218</ele>
        <time>2019-03-13T10:19:55Z</time>
      </trkpt>
      <trkpt lat="43.23274" lon="5.75679">
        <ele>217</ele>
        <time>2019-03-13T10:20:15Z</time>
      </trkpt>
      <trkpt lat="43.23281" lon="5.75703">
        <ele>217</ele>
        <time>2019-03-13T10:20:38Z</time>
      </trkpt>
      <trkpt lat="43.23286" lon="5.75728">
        <ele>216</ele>
        <time>2019-03-13T10:20:59Z</time>
      </trkpt>
      <trkpt lat="43.23293" lon="5.75753">
        <ele>213</ele>
        <time>2019-03-13T10:21:23Z</time>
      </trkpt>
      <trkpt lat="43.233" lon="5.75777">
        <ele>213</ele>
        <time>2019-03-13T10:21:46Z</time>
      </trkpt>
      <trkpt lat="43.23307" lon="5.75803">
        <ele>213</ele>
        <time>2019-03-13T10:22:09Z</time>
      </trkpt>
      <trkpt lat="43.23314" lon="5.75829">
        <ele>212</ele>
        <time>2019-03-13T10:22:29Z</time>
      </trkpt>
      <trkpt lat="43.23321" lon="5.75853">
        <ele>210</ele>
        <time>2019-03-13T10:22:56Z</time>
      </trkpt>
      <trkpt lat="43.2333" lon="5.75876">
        <ele>210</ele>
        <time>2019-03-13T10:23:21Z</time>
      </trkpt>
      <trkpt lat="43.23338" lon="5.75904">
        <ele>214</ele>
        <time>2019-03-13T10:23:51Z</time>
      </trkpt>
      <trkpt lat="43.23343" lon="5.75931">
        <ele>213</ele>
        <time>2019-03-13T10:24:21Z</time>
      </trkpt>
      <trkpt lat="43.23348" lon="5.75951">
        <ele>213</ele>
        <time>2019-03-13T10:26:03Z</time>
      </trkpt>
      <trkpt lat="43.23353" lon="5.75973">
        <ele>213</ele>
        <time>2019-03-13T10:27:47Z</time>
      </trkpt>
      <trkpt lat="43.23359" lon="5.75998">
        <ele>213</ele>
        <time>2019-03-13T10:28:14Z</time>
      </trkpt>
      <trkpt lat="43.23367" lon="5.76018">
        <ele>211</ele>
        <time>2019-03-13T10:28:50Z</time>
      </trkpt>
      <trkpt lat="43.23375" lon="5.76042">
        <ele>211</ele>
        <time>2019-03-13T10:29:14Z</time>
      </trkpt>
      <trkpt lat="43.2338" lon="5.76071">
        <ele>211</ele>
        <time>2019-03-13T10:29:39Z</time>
      </trkpt>
      <trkpt lat="43.23375" lon="5.76097">
        <ele>209</ele>
        <time>2019-03-13T10:30:20Z</time>
      </trkpt>
      <trkpt lat="43.23363" lon="5.76117">
        <ele>208</ele>
        <time>2019-03-13T10:30:43Z</time>
      </trkpt>
      <trkpt lat="43.23351" lon="5.76137">
        <ele>207</ele>
        <time>2019-03-13T10:31:04Z</time>
      </trkpt>
      <trkpt lat="43.23332" lon="5.76144">
        <ele>201</ele>
        <time>2019-03-13T10:31:27Z</time>
      </trkpt>
      <trkpt lat="43.23312" lon="5.76146">
        <ele>200</ele>
        <time>2019-03-13T10:31:49Z</time>
      </trkpt>
      <trkpt lat="43.23293" lon="5.76151">
        <ele>198</ele>
        <time>2019-03-13T10:32:09Z</time>
      </trkpt>
      <trkpt lat="43.23279" lon="5.76162">
        <ele>196</ele>
        <time>2019-03-13T10:32:51Z</time>
      </trkpt>
      <trkpt lat="43.23264" lon="5.76178">
        <ele>194</ele>
        <time>2019-03-13T10:33:14Z</time>
      </trkpt>
      <trkpt lat="43.23278" lon="5.76191">
        <ele>195</ele>
        <time>2019-03-13T10:34:30Z</time>
      </trkpt>
      <trkpt lat="43.2329" lon="5.76216">
        <ele>196</ele>
        <time>2019-03-13T10:35:04Z</time>
      </trkpt>
      <trkpt lat="43.23295" lon="5.76211">
        <ele>196</ele>
        <time>2019-03-13T10:36:51Z</time>
      </trkpt>
      <trkpt lat="43.23285" lon="5.76197">
        <ele>196</ele>
        <time>2019-03-13T10:37:44Z</time>
      </trkpt>
      <trkpt lat="43.23274" lon="5.76173">
        <ele>195</ele>
        <time>2019-03-13T10:38:23Z</time>
      </trkpt>
      <trkpt lat="43.23274" lon="5.7619">
        <ele>195</ele>
        <time>2019-03-13T10:39:08Z</time>
      </trkpt>
      <trkpt lat="43.23259" lon="5.76205">
        <ele>194</ele>
        <time>2019-03-13T10:39:41Z</time>
      </trkpt>
      <trkpt lat="43.23243" lon="5.76212">
        <ele>187</ele>
        <time>2019-03-13T10:40:03Z</time>
      </trkpt>
      <trkpt lat="43.23245" lon="5.76189">
        <ele>188</ele>
        <time>2019-03-13T10:42:26Z</time>
      </trkpt>
      <trkpt lat="43.2324" lon="5.76186">
        <ele>188</ele>
        <time>2019-03-13T12:02:41Z</time>
      </trkpt>
      <trkpt lat="43.2324" lon="5.76208">
        <ele>187</ele>
        <time>2019-03-13T12:03:37Z</time>
      </trkpt>
      <trkpt lat="43.23254" lon="5.76212">
        <ele>194</ele>
        <time>2019-03-13T12:04:40Z</time>
      </trkpt>
      <trkpt lat="43.23266" lon="5.76193">
        <ele>195</ele>
        <time>2019-03-13T12:05:12Z</time>
      </trkpt>
      <trkpt lat="43.23267" lon="5.7617">
        <ele>194</ele>
        <time>2019-03-13T12:05:35Z</time>
      </trkpt>
      <trkpt lat="43.23287" lon="5.76156">
        <ele>197</ele>
        <time>2019-03-13T12:06:06Z</time>
      </trkpt>
      <trkpt lat="43.23304" lon="5.76147">
        <ele>199</ele>
        <time>2019-03-13T12:06:28Z</time>
      </trkpt>
      <trkpt lat="43.23324" lon="5.76146">
        <ele>201</ele>
        <time>2019-03-13T12:06:51Z</time>
      </trkpt>
      <trkpt lat="43.23343" lon="5.7614">
        <ele>207</ele>
        <time>2019-03-13T12:07:15Z</time>
      </trkpt>
      <trkpt lat="43.23358" lon="5.76128">
        <ele>208</ele>
        <time>2019-03-13T12:07:39Z</time>
      </trkpt>
      <trkpt lat="43.23369" lon="5.76107">
        <ele>208</ele>
        <time>2019-03-13T12:08:07Z</time>
      </trkpt>
      <trkpt lat="43.2338" lon="5.76086">
        <ele>209</ele>
        <time>2019-03-13T12:08:25Z</time>
      </trkpt>
      <trkpt lat="43.23387" lon="5.76062">
        <ele>212</ele>
        <time>2019-03-13T12:08:49Z</time>
      </trkpt>
      <trkpt lat="43.23391" lon="5.76037">
        <ele>212</ele>
        <time>2019-03-13T12:09:06Z</time>
      </trkpt>
      <trkpt lat="43.2339" lon="5.76011">
        <ele>212</ele>
        <time>2019-03-13T12:09:22Z</time>
      </trkpt>
      <trkpt lat="43.2337" lon="5.76007">
        <ele>211</ele>
        <time>2019-03-13T12:09:39Z</time>
      </trkpt>
      <trkpt lat="43.23359" lon="5.75987">
        <ele>213</ele>
        <time>2019-03-13T12:10:00Z</time>
      </trkpt>
      <trkpt lat="43.23351" lon="5.75963">
        <ele>213</ele>
        <time>2019-03-13T12:10:21Z</time>
      </trkpt>
      <trkpt lat="43.23344" lon="5.75939">
        <ele>213</ele>
        <time>2019-03-13T12:10:42Z</time>
      </trkpt>
      <trkpt lat="43.23338" lon="5.75915">
        <ele>213</ele>
        <time>2019-03-13T12:11:03Z</time>
      </trkpt>
      <trkpt lat="43.23331" lon="5.75891">
        <ele>210</ele>
        <time>2019-03-13T12:11:33Z</time>
      </trkpt>
      <trkpt lat="43.23324" lon="5.75867">
        <ele>210</ele>
        <time>2019-03-13T12:11:54Z</time>
      </trkpt>
      <trkpt lat="43.23317" lon="5.75843">
        <ele>211</ele>
        <time>2019-03-13T12:12:17Z</time>
      </trkpt>
      <trkpt lat="43.23311" lon="5.7582">
        <ele>212</ele>
        <time>2019-03-13T12:12:38Z</time>
      </trkpt>
      <trkpt lat="43.23303" lon="5.75797">
        <ele>213</ele>
        <time>2019-03-13T12:12:57Z</time>
      </trkpt>
      <trkpt lat="43.23296" lon="5.75773">
        <ele>213</ele>
        <time>2019-03-13T12:13:19Z</time>
      </trkpt>
      <trkpt lat="43.2329" lon="5.75747">
        <ele>216</ele>
        <time>2019-03-13T12:13:42Z</time>
      </trkpt>
      <trkpt lat="43.23284" lon="5.75723">
        <ele>216</ele>
        <time>2019-03-13T12:14:02Z</time>
      </trkpt>
      <trkpt lat="43.23279" lon="5.75698">
        <ele>217</ele>
        <time>2019-03-13T12:14:21Z</time>
      </trkpt>
      <trkpt lat="43.23273" lon="5.75675">
        <ele>217</ele>
        <time>2019-03-13T12:14:41Z</time>
      </trkpt>
      <trkpt lat="43.23265" lon="5.75651">
        <ele>218</ele>
        <time>2019-03-13T12:15:00Z</time>
      </trkpt>
      <trkpt lat="43.23258" lon="5.75626">
        <ele>218</ele>
        <time>2019-03-13T12:15:20Z</time>
      </trkpt>
      <trkpt lat="43.2325" lon="5.75603">
        <ele>214</ele>
        <time>2019-03-13T12:15:37Z</time>
      </trkpt>
      <trkpt lat="43.23243" lon="5.75578">
        <ele>215</ele>
        <time>2019-03-13T12:15:57Z</time>
      </trkpt>
      <trkpt lat="43.23236" lon="5.75551">
        <ele>213</ele>
        <time>2019-03-13T12:16:16Z</time>
      </trkpt>
      <trkpt lat="43.23229" lon="5.75525">
        <ele>213</ele>
        <time>2019-03-13T12:16:34Z</time>
      </trkpt>
      <trkpt lat="43.23221" lon="5.75497">
        <ele>212</ele>
        <time>2019-03-13T12:16:54Z</time>
      </trkpt>
      <trkpt lat="43.23213" lon="5.7547">
        <ele>211</ele>
        <time>2019-03-13T12:17:14Z</time>
      </trkpt>
      <trkpt lat="43.23207" lon="5.75442">
        <ele>210</ele>
        <time>2019-03-13T12:17:36Z</time>
      </trkpt>
      <trkpt lat="43.232" lon="5.75416">
        <ele>205</ele>
        <time>2019-03-13T12:18:00Z</time>
      </trkpt>
      <trkpt lat="43.23194" lon="5.75387">
        <ele>203</ele>
        <time>2019-03-13T12:18:25Z</time>
      </trkpt>
      <trkpt lat="43.23186" lon="5.75362">
        <ele>201</ele>
        <time>2019-03-13T12:18:49Z</time>
      </trkpt>
      <trkpt lat="43.23179" lon="5.75336">
        <ele>197</ele>
        <time>2019-03-13T12:19:28Z</time>
      </trkpt>
      <trkpt lat="43.23176" lon="5.7531">
        <ele>193</ele>
        <time>2019-03-13T12:19:55Z</time>
      </trkpt>
      <trkpt lat="43.2317" lon="5.75284">
        <ele>192</ele>
        <time>2019-03-13T12:20:18Z</time>
      </trkpt>
      <trkpt lat="43.2317" lon="5.75262">
        <ele>190</ele>
        <time>2019-03-13T12:20:42Z</time>
      </trkpt>
      <trkpt lat="43.23193" lon="5.75259">
        <ele>192</ele>
        <time>2019-03-13T12:21:03Z</time>
      </trkpt>
      <trkpt lat="43.23216" lon="5.7526">
        <ele>193</ele>
        <time>2019-03-13T12:21:25Z</time>
      </trkpt>
      <trkpt lat="43.2324" lon="5.75257">
        <ele>193</ele>
        <time>2019-03-13T12:21:48Z</time>
      </trkpt>
      <trkpt lat="43.23261" lon="5.75254">
        <ele>195</ele>
        <time>2019-03-13T12:22:09Z</time>
      </trkpt>
      <trkpt lat="43.23282" lon="5.7525">
        <ele>198</ele>
        <time>2019-03-13T12:22:30Z</time>
      </trkpt>
      <trkpt lat="43.23303" lon="5.75241">
        <ele>197</ele>
        <time>2019-03-13T12:22:52Z</time>
      </trkpt>
      <trkpt lat="43.23324" lon="5.7523">
        <ele>197</ele>
        <time>2019-03-13T12:23:11Z</time>
      </trkpt>
      <trkpt lat="43.23344" lon="5.75217">
        <ele>200</ele>
        <time>2019-03-13T12:23:30Z</time>
      </trkpt>
      <trkpt lat="43.23363" lon="5.75206">
        <ele>200</ele>
        <time>2019-03-13T12:23:49Z</time>
      </trkpt>
      <trkpt lat="43.23378" lon="5.75207">
        <ele>201</ele>
        <time>2019-03-13T12:24:29Z</time>
      </trkpt>
      <trkpt lat="43.2339" lon="5.75223">
        <ele>202</ele>
        <time>2019-03-13T12:25:16Z</time>
      </trkpt>
      <trkpt lat="43.23403" lon="5.75244">
        <ele>204</ele>
        <time>2019-03-13T12:25:54Z</time>
      </trkpt>
      <trkpt lat="43.23411" lon="5.75255">
        <ele>209</ele>
        <time>2019-03-13T12:28:08Z</time>
      </trkpt>
      <trkpt lat="43.23401" lon="5.75243">
        <ele>204</ele>
        <time>2019-03-13T12:28:51Z</time>
      </trkpt>
      <trkpt lat="43.23393" lon="5.75235">
        <ele>203</ele>
        <time>2019-03-13T12:29:42Z</time>
      </trkpt>
      <trkpt lat="43.23383" lon="5.75217">
        <ele>201</ele>
        <time>2019-03-13T12:30:25Z</time>
      </trkpt>
      <trkpt lat="43.23373" lon="5.75204">
        <ele>200</ele>
        <time>2019-03-13T12:31:17Z</time>
      </trkpt>
      <trkpt lat="43.23381" lon="5.75193">
        <ele>200</ele>
        <time>2019-03-13T12:33:36Z</time>
      </trkpt>
      <trkpt lat="43.23399" lon="5.7518">
        <ele>200</ele>
        <time>2019-03-13T12:33:58Z</time>
      </trkpt>
      <trkpt lat="43.23419" lon="5.75167">
        <ele>199</ele>
        <time>2019-03-13T12:34:22Z</time>
      </trkpt>
      <trkpt lat="43.23441" lon="5.75161">
        <ele>206</ele>
        <time>2019-03-13T12:34:44Z</time>
      </trkpt>
      <trkpt lat="43.23462" lon="5.75169">
        <ele>206</ele>
        <time>2019-03-13T12:35:04Z</time>
      </trkpt>
      <trkpt lat="43.23482" lon="5.75182">
        <ele>207</ele>
        <time>2019-03-13T12:35:28Z</time>
      </trkpt>
      <trkpt lat="43.23502" lon="5.75197">
        <ele>211</ele>
        <time>2019-03-13T12:35:51Z</time>
      </trkpt>
      <trkpt lat="43.23521" lon="5.75201">
        <ele>212</ele>
        <time>2019-03-13T12:36:12Z</time>
      </trkpt>
      <trkpt lat="43.23544" lon="5.75211">
        <ele>212</ele>
        <time>2019-03-13T12:36:34Z</time>
      </trkpt>
      <trkpt lat="43.23565" lon="5.75224">
        <ele>212</ele>
        <time>2019-03-13T12:36:54Z</time>
      </trkpt>
      <trkpt lat="43.23585" lon="5.75227">
        <ele>212</ele>
        <time>2019-03-13T12:37:15Z</time>
      </trkpt>
      <trkpt lat="43.23602" lon="5.75239">
        <ele>212</ele>
        <time>2019-03-13T12:37:35Z</time>
      </trkpt>
      <trkpt lat="43.23623" lon="5.75241">
        <ele>212</ele>
        <time>2019-03-13T12:37:58Z</time>
      </trkpt>
      <trkpt lat="43.23645" lon="5.75236">
        <ele>212</ele>
        <time>2019-03-13T12:38:21Z</time>
      </trkpt>
      <trkpt lat="43.23668" lon="5.75236">
        <ele>212</ele>
        <time>2019-03-13T12:38:44Z</time>
      </trkpt>
      <trkpt lat="43.23691" lon="5.75236">
        <ele>214</ele>
        <time>2019-03-13T12:39:05Z</time>
      </trkpt>
      <trkpt lat="43.23709" lon="5.75244">
        <ele>215</ele>
        <time>2019-03-13T12:39:26Z</time>
      </trkpt>
      <trkpt lat="43.2372" lon="5.75268">
        <ele>216</ele>
        <time>2019-03-13T12:39:51Z</time>
      </trkpt>
      <trkpt lat="43.23731" lon="5.75289">
        <ele>217</ele>
        <time>2019-03-13T12:40:14Z</time>
      </trkpt>
      <trkpt lat="43.23749" lon="5.75312">
        <ele>218</ele>
        <time>2019-03-13T12:40:38Z</time>
      </trkpt>
      <trkpt lat="43.23771" lon="5.75325">
        <ele>219</ele>
        <time>2019-03-13T12:41:01Z</time>
      </trkpt>
      <trkpt lat="43.23794" lon="5.75317">
        <ele>219</ele>
        <time>2019-03-13T12:41:24Z</time>
      </trkpt>
      <trkpt lat="43.23816" lon="5.75301">
        <ele>219</ele>
        <time>2019-03-13T12:41:56Z</time>
      </trkpt>
      <trkpt lat="43.23838" lon="5.75283">
        <ele>223</ele>
        <time>2019-03-13T12:42:23Z</time>
      </trkpt>
      <trkpt lat="43.23858" lon="5.75262">
        <ele>223</ele>
        <time>2019-03-13T12:42:54Z</time>
      </trkpt>
      <trkpt lat="43.23882" lon="5.75242">
        <ele>227</ele>
        <time>2019-03-13T12:43:26Z</time>
      </trkpt>
      <trkpt lat="43.2391" lon="5.7523">
        <ele>227</ele>
        <time>2019-03-13T12:43:59Z</time>
      </trkpt>
      <trkpt lat="43.23935" lon="5.75218">
        <ele>231</ele>
        <time>2019-03-13T12:44:28Z</time>
      </trkpt>
      <trkpt lat="43.23957" lon="5.75207">
        <ele>232</ele>
        <time>2019-03-13T12:44:52Z</time>
      </trkpt>
      <trkpt lat="43.23977" lon="5.75191">
        <ele>233</ele>
        <time>2019-03-13T12:45:18Z</time>
      </trkpt>
      <trkpt lat="43.24" lon="5.75177">
        <ele>238</ele>
        <time>2019-03-13T12:45:51Z</time>
      </trkpt>
      <trkpt lat="43.24016" lon="5.75156">
        <ele>239</ele>
        <time>2019-03-13T12:46:13Z</time>
      </trkpt>
      <trkpt lat="43.24031" lon="5.7513">
        <ele>241</ele>
        <time>2019-03-13T12:46:41Z</time>
      </trkpt>
      <trkpt lat="43.24044" lon="5.75106">
        <ele>241</ele>
        <time>2019-03-13T12:47:07Z</time>
      </trkpt>
      <trkpt lat="43.24061" lon="5.75084">
        <ele>242</ele>
        <time>2019-03-13T12:47:38Z</time>
      </trkpt>
      <trkpt lat="43.24084" lon="5.75068">
        <ele>246</ele>
        <time>2019-03-13T12:48:40Z</time>
      </trkpt>
      <trkpt lat="43.24103" lon="5.75062">
        <ele>247</ele>
        <time>2019-03-13T12:52:45Z</time>
      </trkpt>
      <trkpt lat="43.24119" lon="5.75042">
        <ele>249</ele>
        <time>2019-03-13T12:53:09Z</time>
      </trkpt>
      <trkpt lat="43.24126" lon="5.75017">
        <ele>249</ele>
        <time>2019-03-13T12:53:29Z</time>
      </trkpt>
      <trkpt lat="43.24145" lon="5.75013">
        <ele>248</ele>
        <time>2019-03-13T12:53:50Z</time>
      </trkpt>
      <trkpt lat="43.24166" lon="5.7501">
        <ele>247</ele>
        <time>2019-03-13T12:54:14Z</time>
      </trkpt>
      <trkpt lat="43.24186" lon="5.75005">
        <ele>249</ele>
        <time>2019-03-13T12:54:37Z</time>
      </trkpt>
      <trkpt lat="43.24205" lon="5.74996">
        <ele>247</ele>
        <time>2019-03-13T12:55:02Z</time>
      </trkpt>
      <trkpt lat="43.24225" lon="5.74987">
        <ele>248</ele>
        <time>2019-03-13T12:55:27Z</time>
      </trkpt>
      <trkpt lat="43.2424" lon="5.7497">
        <ele>248</ele>
        <time>2019-03-13T12:55:48Z</time>
      </trkpt>
      <trkpt lat="43.24247" lon="5.74942">
        <ele>247</ele>
        <time>2019-03-13T12:56:14Z</time>
      </trkpt>
      <trkpt lat="43.24261" lon="5.74915">
        <ele>249</ele>
        <time>2019-03-13T12:56:42Z</time>
      </trkpt>
      <trkpt lat="43.24278" lon="5.74895">
        <ele>253</ele>
        <time>2019-03-13T12:57:07Z</time>
      </trkpt>
      <trkpt lat="43.24299" lon="5.74885">
        <ele>254</ele>
        <time>2019-03-13T12:57:30Z</time>
      </trkpt>
      <trkpt lat="43.24317" lon="5.74868">
        <ele>255</ele>
        <time>2019-03-13T12:57:56Z</time>
      </trkpt>
      <trkpt lat="43.24337" lon="5.74855">
        <ele>259</ele>
        <time>2019-03-13T12:58:19Z</time>
      </trkpt>
      <trkpt lat="43.24358" lon="5.74838">
        <ele>260</ele>
        <time>2019-03-13T12:58:45Z</time>
      </trkpt>
      <trkpt lat="43.24376" lon="5.7482">
        <ele>260</ele>
        <time>2019-03-13T12:59:07Z</time>
      </trkpt>
      <trkpt lat="43.24395" lon="5.74804">
        <ele>260</ele>
        <time>2019-03-13T12:59:31Z</time>
      </trkpt>
      <trkpt lat="43.24403" lon="5.74782">
        <ele>260</ele>
        <time>2019-03-13T12:59:49Z</time>
      </trkpt>
      <trkpt lat="43.24412" lon="5.74757">
        <ele>259</ele>
        <time>2019-03-13T13:00:10Z</time>
      </trkpt>
      <trkpt lat="43.24416" lon="5.74729">
        <ele>263</ele>
        <time>2019-03-13T13:00:32Z</time>
      </trkpt>
      <trkpt lat="43.24413" lon="5.74702">
        <ele>265</ele>
        <time>2019-03-13T13:01:04Z</time>
      </trkpt>
      <trkpt lat="43.24406" lon="5.74674">
        <ele>265</ele>
        <time>2019-03-13T13:01:24Z</time>
      </trkpt>
      <trkpt lat="43.24409" lon="5.74648">
        <ele>270</ele>
        <time>2019-03-13T13:01:43Z</time>
      </trkpt>
      <trkpt lat="43.24411" lon="5.74622">
        <ele>272</ele>
        <time>2019-03-13T13:02:06Z</time>
      </trkpt>
      <trkpt lat="43.2441" lon="5.74595">
        <ele>272</ele>
        <time>2019-03-13T13:02:26Z</time>
      </trkpt>
      <trkpt lat="43.24404" lon="5.74569">
        <ele>275</ele>
        <time>2019-03-13T13:02:45Z</time>
      </trkpt>
      <trkpt lat="43.24394" lon="5.74544">
        <ele>278</ele>
        <time>2019-03-13T13:03:10Z</time>
      </trkpt>
      <trkpt lat="43.24391" lon="5.74513">
        <ele>278</ele>
        <time>2019-03-13T13:03:36Z</time>
      </trkpt>
      <trkpt lat="43.24398" lon="5.74475">
        <ele>278</ele>
        <time>2019-03-13T13:03:59Z</time>
      </trkpt>
      <trkpt lat="43.24401" lon="5.74444">
        <ele>278</ele>
        <time>2019-03-13T13:04:22Z</time>
      </trkpt>
      <trkpt lat="43.24407" lon="5.74413">
        <ele>275</ele>
        <time>2019-03-13T13:04:47Z</time>
      </trkpt>
      <trkpt lat="43.24405" lon="5.74384">
        <ele>279</ele>
        <time>2019-03-13T13:05:21Z</time>
      </trkpt>
      <trkpt lat="43.24401" lon="5.74366">
        <ele>280</ele>
        <time>2019-03-13T13:10:33Z</time>
      </trkpt>
      <trkpt lat="43.24391" lon="5.74342">
        <ele>280</ele>
        <time>2019-03-13T13:11:04Z</time>
      </trkpt>
      <trkpt lat="43.24378" lon="5.74322">
        <ele>284</ele>
        <time>2019-03-13T13:11:32Z</time>
      </trkpt>
      <trkpt lat="43.24373" lon="5.74291">
        <ele>285</ele>
        <time>2019-03-13T13:11:58Z</time>
      </trkpt>
      <trkpt lat="43.24375" lon="5.74258">
        <ele>286</ele>
        <time>2019-03-13T13:12:28Z</time>
      </trkpt>
      <trkpt lat="43.24354" lon="5.74236">
        <ele>289</ele>
        <time>2019-03-13T13:12:59Z</time>
      </trkpt>
      <trkpt lat="43.24333" lon="5.74242">
        <ele>284</ele>
        <time>2019-03-13T13:13:27Z</time>
      </trkpt>
      <trkpt lat="43.24318" lon="5.74223">
        <ele>288</ele>
        <time>2019-03-13T13:13:50Z</time>
      </trkpt>
      <trkpt lat="43.24313" lon="5.74196">
        <ele>290</ele>
        <time>2019-03-13T13:14:16Z</time>
      </trkpt>
      <trkpt lat="43.24305" lon="5.74171">
        <ele>290</ele>
        <time>2019-03-13T13:14:44Z</time>
      </trkpt>
      <trkpt lat="43.24296" lon="5.74147">
        <ele>294</ele>
        <time>2019-03-13T13:15:05Z</time>
      </trkpt>
      <trkpt lat="43.24294" lon="5.74121">
        <ele>295</ele>
        <time>2019-03-13T13:15:26Z</time>
      </trkpt>
      <trkpt lat="43.24294" lon="5.74094">
        <ele>295</ele>
        <time>2019-03-13T13:15:50Z</time>
      </trkpt>
      <trkpt lat="43.24297" lon="5.74066">
        <ele>297</ele>
        <time>2019-03-13T13:16:12Z</time>
      </trkpt>
      <trkpt lat="43.24311" lon="5.74044">
        <ele>296</ele>
        <time>2019-03-13T13:16:34Z</time>
      </trkpt>
      <trkpt lat="43.24326" lon="5.74023">
        <ele>297</ele>
        <time>2019-03-13T13:16:59Z</time>
      </trkpt>
      <trkpt lat="43.24342" lon="5.74001">
        <ele>300</ele>
        <time>2019-03-13T13:17:25Z</time>
      </trkpt>
      <trkpt lat="43.24361" lon="5.73984">
        <ele>306</ele>
        <time>2019-03-13T13:17:50Z</time>
      </trkpt>
      <trkpt lat="43.24376" lon="5.73961">
        <ele>309</ele>
        <time>2019-03-13T13:18:18Z</time>
      </trkpt>
      <trkpt lat="43.24381" lon="5.7393">
        <ele>311</ele>
        <time>2019-03-13T13:18:50Z</time>
      </trkpt>
      <trkpt lat="43.2439" lon="5.73903">
        <ele>320</ele>
        <time>2019-03-13T13:19:19Z</time>
      </trkpt>
      <trkpt lat="43.244" lon="5.7387">
        <ele>323</ele>
        <time>2019-03-13T13:19:51Z</time>
      </trkpt>
      <trkpt lat="43.24419" lon="5.73847">
        <ele>330</ele>
        <time>2019-03-13T13:20:18Z</time>
      </trkpt>
      <trkpt lat="43.24432" lon="5.73816">
        <ele>337</ele>
        <time>2019-03-13T13:20:49Z</time>
      </trkpt>
      <trkpt lat="43.24433" lon="5.73788">
        <ele>340</ele>
        <time>2019-03-13T13:21:15Z</time>
      </trkpt>
      <trkpt lat="43.24433" lon="5.73755">
        <ele>341</ele>
        <time>2019-03-13T13:21:46Z</time>
      </trkpt>
      <trkpt lat="43.2443" lon="5.73719">
        <ele>348</ele>
        <time>2019-03-13T13:22:12Z</time>
      </trkpt>
      <trkpt lat="43.24428" lon="5.73684">
        <ele>350</ele>
        <time>2019-03-13T13:22:37Z</time>
      </trkpt>
      <trkpt lat="43.24436" lon="5.73655">
        <ele>355</ele>
        <time>2019-03-13T13:29:08Z</time>
      </trkpt>
      <trkpt lat="43.24451" lon="5.73635">
        <ele>358</ele>
        <time>2019-03-13T13:29:34Z</time>
      </trkpt>
      <trkpt lat="43.24467" lon="5.73615">
        <ele>360</ele>
        <time>2019-03-13T13:30:06Z</time>
      </trkpt>
      <trkpt lat="43.24485" lon="5.73597">
        <ele>360</ele>
        <time>2019-03-13T13:30:36Z</time>
      </trkpt>
      <trkpt lat="43.24503" lon="5.73577">
        <ele>364</ele>
        <time>2019-03-13T13:31:03Z</time>
      </trkpt>
      <trkpt lat="43.24523" lon="5.73554">
        <ele>371</ele>
        <time>2019-03-13T13:31:30Z</time>
      </trkpt>
      <trkpt lat="43.24526" lon="5.73521">
        <ele>373</ele>
        <time>2019-03-13T13:31:58Z</time>
      </trkpt>
      <trkpt lat="43.24529" lon="5.73486">
        <ele>380</ele>
        <time>2019-03-13T13:32:30Z</time>
      </trkpt>
      <trkpt lat="43.24533" lon="5.73457">
        <ele>383</ele>
        <time>2019-03-13T13:32:55Z</time>
      </trkpt>
      <trkpt lat="43.24528" lon="5.73427">
        <ele>385</ele>
        <time>2019-03-13T13:33:23Z</time>
      </trkpt>
      <trkpt lat="43.24534" lon="5.73396">
        <ele>392</ele>
        <time>2019-03-13T13:33:50Z</time>
      </trkpt>
      <trkpt lat="43.24536" lon="5.73364">
        <ele>394</ele>
        <time>2019-03-13T13:34:12Z</time>
      </trkpt>
      <trkpt lat="43.24543" lon="5.73338">
        <ele>394</ele>
        <time>2019-03-13T13:34:35Z</time>
      </trkpt>
      <trkpt lat="43.24556" lon="5.73313">
        <ele>400</ele>
        <time>2019-03-13T13:34:59Z</time>
      </trkpt>
      <trkpt lat="43.24565" lon="5.73287">
        <ele>401</ele>
        <time>2019-03-13T13:35:26Z</time>
      </trkpt>
      <trkpt lat="43.24578" lon="5.73265">
        <ele>401</ele>
        <time>2019-03-13T13:35:49Z</time>
      </trkpt>
      <trkpt lat="43.24594" lon="5.73248">
        <ele>403</ele>
        <time>2019-03-13T13:36:10Z</time>
      </trkpt>
      <trkpt lat="43.24608" lon="5.73224">
        <ele>406</ele>
        <time>2019-03-13T13:36:32Z</time>
      </trkpt>
      <trkpt lat="43.24622" lon="5.73201">
        <ele>407</ele>
        <time>2019-03-13T13:36:54Z</time>
      </trkpt>
      <trkpt lat="43.24637" lon="5.73182">
        <ele>408</ele>
        <time>2019-03-13T13:37:16Z</time>
      </trkpt>
      <trkpt lat="43.24653" lon="5.73164">
        <ele>412</ele>
        <time>2019-03-13T13:37:36Z</time>
      </trkpt>
      <trkpt lat="43.24668" lon="5.73141">
        <ele>415</ele>
        <time>2019-03-13T13:37:57Z</time>
      </trkpt>
      <trkpt lat="43.24683" lon="5.73108">
        <ele>417</ele>
        <time>2019-03-13T13:38:22Z</time>
      </trkpt>
      <trkpt lat="43.24692" lon="5.73077">
        <ele>419</ele>
        <time>2019-03-13T13:38:44Z</time>
      </trkpt>
      <trkpt lat="43.24698" lon="5.73046">
        <ele>421</ele>
        <time>2019-03-13T13:39:04Z</time>
      </trkpt>
      <trkpt lat="43.24703" lon="5.73013">
        <ele>422</ele>
        <time>2019-03-13T13:39:31Z</time>
      </trkpt>
      <trkpt lat="43.24713" lon="5.72974">
        <ele>426</ele>
        <time>2019-03-13T13:39:56Z</time>
      </trkpt>
      <trkpt lat="43.24725" lon="5.72943">
        <ele>427</ele>
        <time>2019-03-13T13:40:16Z</time>
      </trkpt>
      <trkpt lat="43.24733" lon="5.72904">
        <ele>429</ele>
        <time>2019-03-13T13:40:36Z</time>
      </trkpt>
      <trkpt lat="43.24739" lon="5.72876">
        <ele>430</ele>
        <time>2019-03-13T13:40:54Z</time>
      </trkpt>
      <trkpt lat="43.24744" lon="5.72842">
        <ele>431</ele>
        <time>2019-03-13T13:41:14Z</time>
      </trkpt>
      <trkpt lat="43.24746" lon="5.72815">
        <ele>431</ele>
        <time>2019-03-13T13:41:30Z</time>
      </trkpt>
      <trkpt lat="43.24752" lon="5.72785">
        <ele>433</ele>
        <time>2019-03-13T13:41:49Z</time>
      </trkpt>
      <trkpt lat="43.24763" lon="5.72749">
        <ele>433</ele>
        <time>2019-03-13T13:42:14Z</time>
      </trkpt>
      <trkpt lat="43.2476" lon="5.72735">
        <ele>433</ele>
        <time>2019-03-13T13:48:36Z</time>
      </trkpt>
      <trkpt lat="43.24744" lon="5.72724">
        <ele>431</ele>
        <time>2019-03-13T13:49:11Z</time>
      </trkpt>
      <trkpt lat="43.24756" lon="5.72705">
        <ele>433</ele>
        <time>2019-03-13T13:52:24Z</time>
      </trkpt>
      <trkpt lat="43.24747" lon="5.7268">
        <ele>432</ele>
        <time>2019-03-13T13:52:46Z</time>
      </trkpt>
      <trkpt lat="43.24733" lon="5.7266">
        <ele>433</ele>
        <time>2019-03-13T13:53:05Z</time>
      </trkpt>
      <trkpt lat="43.24722" lon="5.72638">
        <ele>432</ele>
        <time>2019-03-13T13:53:25Z</time>
      </trkpt>
      <trkpt lat="43.24711" lon="5.72611">
        <ele>433</ele>
        <time>2019-03-13T13:53:46Z</time>
      </trkpt>
      <trkpt lat="43.24701" lon="5.72585">
        <ele>432</ele>
        <time>2019-03-13T13:54:06Z</time>
      </trkpt>
      <trkpt lat="43.24692" lon="5.7256">
        <ele>434</ele>
        <time>2019-03-13T13:54:24Z</time>
      </trkpt>
      <trkpt lat="43.24683" lon="5.72534">
        <ele>434</ele>
        <time>2019-03-13T13:54:42Z</time>
      </trkpt>
      <trkpt lat="43.24678" lon="5.72505">
        <ele>434</ele>
        <time>2019-03-13T13:55:02Z</time>
      </trkpt>
      <trkpt lat="43.24674" lon="5.72477">
        <ele>435</ele>
        <time>2019-03-13T13:55:21Z</time>
      </trkpt>
      <trkpt lat="43.24671" lon="5.72449">
        <ele>435</ele>
        <time>2019-03-13T13:55:39Z</time>
      </trkpt>
      <trkpt lat="43.24668" lon="5.72421">
        <ele>434</ele>
        <time>2019-03-13T13:55:58Z</time>
      </trkpt>
      <trkpt lat="43.24666" lon="5.72395">
        <ele>434</ele>
        <time>2019-03-13T13:56:15Z</time>
      </trkpt>
      <trkpt lat="43.24663" lon="5.72368">
        <ele>435</ele>
        <time>2019-03-13T13:56:35Z</time>
      </trkpt>
      <trkpt lat="43.2466" lon="5.7233">
        <ele>438</ele>
        <time>2019-03-13T13:57:00Z</time>
      </trkpt>
      <trkpt lat="43.24651" lon="5.72301">
        <ele>438</ele>
        <time>2019-03-13T13:57:24Z</time>
      </trkpt>
      <trkpt lat="43.24635" lon="5.7228">
        <ele>438</ele>
        <time>2019-03-13T13:57:46Z</time>
      </trkpt>
      <trkpt lat="43.24616" lon="5.72259">
        <ele>438</ele>
        <time>2019-03-13T13:58:10Z</time>
      </trkpt>
      <trkpt lat="43.24593" lon="5.72243">
        <ele>439</ele>
        <time>2019-03-13T13:58:33Z</time>
      </trkpt>
      <trkpt lat="43.24577" lon="5.72221">
        <ele>438</ele>
        <time>2019-03-13T13:58:59Z</time>
      </trkpt>
      <trkpt lat="43.24557" lon="5.72199">
        <ele>438</ele>
        <time>2019-03-13T13:59:24Z</time>
      </trkpt>
      <trkpt lat="43.24543" lon="5.72173">
        <ele>438</ele>
        <time>2019-03-13T13:59:45Z</time>
      </trkpt>
      <trkpt lat="43.24529" lon="5.72148">
        <ele>437</ele>
        <time>2019-03-13T14:00:08Z</time>
      </trkpt>
      <trkpt lat="43.24516" lon="5.72123">
        <ele>437</ele>
        <time>2019-03-13T14:00:30Z</time>
      </trkpt>
      <trkpt lat="43.245" lon="5.72097">
        <ele>436</ele>
        <time>2019-03-13T14:00:54Z</time>
      </trkpt>
      <trkpt lat="43.24485" lon="5.72069">
        <ele>436</ele>
        <time>2019-03-13T14:01:19Z</time>
      </trkpt>
      <trkpt lat="43.24466" lon="5.72042">
        <ele>436</ele>
        <time>2019-03-13T14:01:41Z</time>
      </trkpt>
      <trkpt lat="43.24448" lon="5.72018">
        <ele>436</ele>
        <time>2019-03-13T14:02:03Z</time>
      </trkpt>
      <trkpt lat="43.24431" lon="5.71993">
        <ele>438</ele>
        <time>2019-03-13T14:02:26Z</time>
      </trkpt>
      <trkpt lat="43.24414" lon="5.71972">
        <ele>436</ele>
        <time>2019-03-13T14:02:46Z</time>
      </trkpt>
      <trkpt lat="43.24402" lon="5.7195">
        <ele>437</ele>
        <time>2019-03-13T14:03:05Z</time>
      </trkpt>
      <trkpt lat="43.24388" lon="5.71925">
        <ele>437</ele>
        <time>2019-03-13T14:03:27Z</time>
      </trkpt>
      <trkpt lat="43.24378" lon="5.71899">
        <ele>438</ele>
        <time>2019-03-13T14:03:46Z</time>
      </trkpt>
      <trkpt lat="43.24372" lon="5.71872">
        <ele>438</ele>
        <time>2019-03-13T14:04:05Z</time>
      </trkpt>
      <trkpt lat="43.24364" lon="5.7184">
        <ele>438</ele>
        <time>2019-03-13T14:04:26Z</time>
      </trkpt>
      <trkpt lat="43.24358" lon="5.71805">
        <ele>440</ele>
        <time>2019-03-13T14:04:50Z</time>
      </trkpt>
      <trkpt lat="43.24351" lon="5.71764">
        <ele>440</ele>
        <time>2019-03-13T14:05:18Z</time>
      </trkpt>
      <trkpt lat="43.24345" lon="5.71731">
        <ele>442</ele>
        <time>2019-03-13T14:05:42Z</time>
      </trkpt>
      <trkpt lat="43.24338" lon="5.71701">
        <ele>443</ele>
        <time>2019-03-13T14:06:02Z</time>
      </trkpt>
      <trkpt lat="43.24331" lon="5.71673">
        <ele>442</ele>
        <time>2019-03-13T14:06:21Z</time>
      </trkpt>
      <trkpt lat="43.24321" lon="5.71642">
        <ele>441</ele>
        <time>2019-03-13T14:06:45Z</time>
      </trkpt>
      <trkpt lat="43.24313" lon="5.71606">
        <ele>440</ele>
        <time>2019-03-13T14:07:10Z</time>
      </trkpt>
      <trkpt lat="43.24303" lon="5.71572">
        <ele>439</ele>
        <time>2019-03-13T14:07:37Z</time>
      </trkpt>
      <trkpt lat="43.24291" lon="5.71539">
        <ele>438</ele>
        <time>2019-03-13T14:07:59Z</time>
      </trkpt>
      <trkpt lat="43.24282" lon="5.71499">
        <ele>437</ele>
        <time>2019-03-13T14:09:13Z</time>
      </trkpt>
      <trkpt lat="43.24282" lon="5.715">
        <ele>437</ele>
        <time>2019-03-13T14:09:27Z</time>
      </trkpt>
    </trkseg>
  </trk>
</gpx>